Aviation Digital Data Service (ADDS)

Output produced by METARs form (1235 UTC 17 December 2018)
found at http://aviationweather.gov/metar/data/
 
KARA 171229Z 18003KT 6SM BR BKN003 06/05 A3029 RMK AO2 T00610050 $
KARA 171153Z 00000KT 9SM SCT003 07/06 A3028 RMK AO2 SLP252 60000 T00670056 10083 20061 53007 $
KARA 171120Z 1712/1812 VRB03KT P6SM BKN250 
     TEMPO 1712/1714 3SM BR OVC001 
     FM171400 VRB03KT P6SM BKN250 
     FM172000 23003KT P6SM BKN250